Time;durP1;ratioP1;P1;durP2;ratioP2;P2;SDS_P1;SDS_P2;PMS_P1;PMS_P2;Temp;Humidity;BMP_temperature;BMP_pressure;BME280_temperature;BME280_humidity;BME280_pressure;Samples;Min_cycle;Max_cycle;Signal;HPM_P1;HPM_P2
2021/01/19 06:37:30;;;;;;;150.55;51.58;;;;;;;-18.34;59.08;100164.06;1821940;77;28562;-61
2021/01/19 06:40:02;;;;;;;219.18;82.02;;;;;;;-18.25;59.19;100169.26;1830394;78;21343;-59
2021/01/19 06:42:39;;;;;;;161.18;63.70;;;;;;;-18.01;59.24;100170.13;1802553;78;21135;-62
2021/01/19 06:45:09;;;;;;;;;;;;;;;-17.80;59.26;100168.46;1798016;78;21190;-61
2021/01/19 06:47:49;;;;;;;176.20;59.98;;;;;;;-17.69;59.08;100167.81;1796782;78;20242;-70
2021/01/19 06:50:43;;;;;;;186.35;67.03;;;;;;;-17.53;59.17;100165.58;1793149;78;21221;-65
2021/01/19 06:53:33;;;;;;;135.82;47.05;;;;;;;-17.41;59.06;100165.38;1623452;87;21592;-65
2021/01/19 06:56:14;;;;;;;154.45;56.00;;;;;;;-17.20;59.11;100169.05;1607052;88;21680;-66
2021/01/19 06:58:59;;;;;;;146.75;56.65;;;;;;;-17.15;58.93;100172.05;1601446;89;21198;-64
2021/01/19 07:01:28;;;;;;;235.57;91.30;;;;;;;-17.09;58.89;100170.06;1606483;88;21214;-62
2021/01/19 07:04:24;;;;;;;215.80;85.70;;;;;;;-16.94;58.92;100167.83;1619325;89;21214;-66
2021/01/19 07:07:10;;;;;;;260.38;93.52;;;;;;;-16.84;58.74;100167.53;1615121;89;21196;-64
2021/01/19 07:10:07;;;;;;;154.27;60.00;;;;;;;-16.81;58.56;100162.59;1604645;88;21234;-67
2021/01/19 07:13:06;;;;;;;138.75;57.83;;;;;;;-16.77;58.39;100165.97;1611754;87;21220;-66
2021/01/19 07:16:07;;;;;;;134.35;55.08;;;;;;;-16.71;58.44;100163.55;1616393;87;21253;-68
2021/01/19 07:18:44;;;;;;;125.40;51.40;;;;;;;-16.58;58.20;100166.63;1596608;88;21231;-66
2021/01/19 07:21:13;;;;;;;96.92;41.95;;;;;;;-16.62;58.11;100167.01;1591725;89;22409;-65
2021/01/19 07:23:53;;;;;;;118.28;49.88;;;;;;;-16.67;58.15;100164.01;1618644;88;21236;-66
2021/01/19 07:26:37;;;;;;;118.45;45.67;;;;;;;-16.52;58.54;100165.87;1600583;89;21283;-66
2021/01/19 07:29:07;;;;;;;107.80;50.23;;;;;;;-16.20;58.51;100168.41;1585913;88;22250;-65
2021/01/19 07:31:37;;;;;;;114.95;47.13;;;;;;;-16.19;57.85;100170.08;1616507;88;21766;-66
2021/01/19 07:34:07;;;;;;;103.70;48.38;;;;;;;-16.22;57.88;100168.77;1606693;88;21238;-65
2021/01/19 07:36:35;;;;;;;111.88;49.33;;;;;;;-16.05;57.94;100163.98;1596189;88;21358;-65
2021/01/19 07:39:20;;;;;;;93.12;44.42;;;;;;;-15.94;57.75;100165.38;1618533;87;21357;-65
2021/01/19 07:41:47;;;;;;;110.70;49.33;;;;;;;-15.84;57.94;100168.38;1617460;88;21174;-69
2021/01/19 07:44:22;;;;;;;125.87;57.58;;;;;;;-15.66;57.79;100169.83;1619721;88;21658;-66
2021/01/19 07:46:52;;;;;;;136.30;55.58;;;;;;;-15.43;57.69;100166.28;1620601;88;21159;-68
2021/01/19 07:49:30;;;;;;;146.50;62.00;;;;;;;-15.30;57.39;100170.58;1619404;88;21219;-65
2021/01/19 07:52:15;;;;;;;147.70;62.30;;;;;;;-15.18;57.37;100167.34;1612774;88;21788;-66
2021/01/19 07:54:43;;;;;;;130.20;58.15;;;;;;;-15.13;57.41;100171.98;1608848;88;21398;-66
2021/01/19 07:57:15;;;;;;;163.60;66.62;;;;;;;-15.00;57.71;100168.75;1613432;88;21801;-68
2021/01/19 07:59:46;;;;;;;110.12;48.33;;;;;;;-14.81;57.77;100165.13;1612277;88;21629;-65
2021/01/19 08:02:23;;;;;;;26.90;11.35;;;;;;;-14.50;57.89;100168.67;1615843;88;21250;-65
2021/01/19 08:05:00;;;;;;;26.82;12.98;;;;;;;-14.02;57.75;100171.81;1616859;88;21312;-65
2021/01/19 08:07:42;;;;;;;31.52;11.70;;;;;;;-13.59;57.15;100169.02;1590246;88;21242;-64
2021/01/19 08:10:24;;;;;;;37.45;16.45;;;;;;;-13.23;56.54;100171.16;1614821;88;21146;-63
2021/01/19 08:12:56;;;;;;;43.65;19.65;;;;;;;-12.99;55.88;100173.23;1588310;88;21630;-65
2021/01/19 08:15:31;;;;;;;50.73;22.85;;;;;;;-12.80;55.45;100176.16;1610950;88;21625;-66
2021/01/19 08:18:01;;;;;;;34.85;16.30;;;;;;;-12.66;55.15;100174.92;1611822;88;21230;-67
2021/01/19 08:20:34;;;;;;;37.17;12.95;;;;;;;-12.64;54.74;100177.00;1604320;89;21735;-67
2021/01/19 08:23:14;;;;;;;39.15;14.93;;;;;;;-12.55;54.47;100177.81;1613914;89;21175;-65
2021/01/19 08:25:44;;;;;;;45.65;17.15;;;;;;;-12.47;54.06;100177.83;1615961;88;21179;-64
2021/01/19 08:28:13;;;;;;;27.13;11.48;;;;;;;-12.34;53.97;100173.59;1608549;88;21719;-63
2021/01/19 08:30:44;;;;;;;32.78;13.15;;;;;;;-12.18;53.79;100170.17;1611429;88;21842;-65
2021/01/19 08:33:14;;;;;;;37.40;14.05;;;;;;;-12.04;53.48;100167.20;1611438;88;21653;-65
2021/01/19 08:35:48;;;;;;;41.23;17.15;;;;;;;-11.92;53.18;100170.11;1607973;88;21235;-65
2021/01/19 08:38:24;;;;;;;43.17;18.05;;;;;;;-11.81;53.08;100163.31;1614411;88;21768;-65
2021/01/19 08:40:54;;;;;;;26.93;11.53;;;;;;;-11.69;52.85;100160.70;1617981;87;21864;-65
2021/01/19 08:43:24;;;;;;;31.65;13.85;;;;;;;-11.58;52.64;100158.13;1620730;88;21736;-68
2021/01/19 08:45:52;;;;;;;32.83;14.33;;;;;;;-11.48;52.50;100162.70;1617611;88;21218;-66
2021/01/19 08:48:20;;;;;;;54.90;17.30;;;;;;;-11.38;52.23;100167.25;1603206;88;21214;-64
2021/01/19 08:50:49;;;;;;;28.90;10.80;;;;;;;-11.35;51.96;100168.52;1586119;89;21473;-69
2021/01/19 08:53:19;;;;;;;24.87;11.48;;;;;;;-11.33;51.91;100168.06;1613928;87;21216;-65
2021/01/19 08:55:48;;;;;;;24.72;10.10;;;;;;;-11.29;51.95;100164.27;1613782;88;21243;-67
2021/01/19 08:58:20;;;;;;;24.67;9.98;;;;;;;-11.20;51.73;100164.19;1612076;89;21596;-66
2021/01/19 09:00:49;;;;;;;20.40;9.63;;;;;;;-11.11;51.52;100162.47;1615118;88;21226;-67
2021/01/19 09:03:18;;;;;;;27.73;12.18;;;;;;;-11.05;51.36;100157.34;1589378;90;21194;-70
2021/01/19 09:05:49;;;;;;;27.98;11.10;;;;;;;-11.05;51.15;100154.42;1607041;89;21188;-67
2021/01/19 09:08:23;;;;;;;34.08;13.72;;;;;;;-11.00;51.13;100156.89;1611214;89;21198;-61
2021/01/19 09:11:07;;;;;;;34.25;15.68;;;;;;;-10.96;51.06;100166.12;1610931;89;21878;-64
2021/01/19 09:16:24;;;;;;;30.75;11.40;;;;;;;-10.81;51.27;100157.14;1817066;77;22245;-60
2021/01/19 09:18:54;;;;;;;29.87;12.15;;;;;;;-10.75;51.16;100158.35;1781693;78;21198;-62
2021/01/19 09:21:24;;;;;;;26.42;12.13;;;;;;;-10.69;50.91;100152.41;1776894;78;21314;-71
2021/01/19 09:23:53;;;;;;;30.60;12.65;;;;;;;-10.67;50.70;100151.99;1773564;80;21146;-63
2021/01/19 09:26:56;;;;;;;29.70;14.25;;;;;;;-10.70;50.21;100158.31;1775242;80;21483;-62
2021/01/19 09:29:31;;;;;;;;;;;;;;;-10.86;50.24;100161.42;1760193;81;21180;-63
2021/01/19 09:32:04;;;;;;;34.75;14.83;;;;;;;-10.98;50.31;100162.78;1765495;81;20303;-63
2021/01/19 09:34:34;;;;;;;30.95;12.00;;;;;;;-11.07;50.48;100161.14;1739675;81;21135;-63
2021/01/19 09:37:10;;;;;;;26.07;9.88;;;;;;;-11.09;50.66;100161.59;1744376;81;21619;-63
2021/01/19 09:39:41;;;;;;;34.27;12.30;;;;;;;-11.13;50.52;100153.63;1745178;81;21169;-66
2021/01/19 09:42:10;;;;;;;23.95;13.53;;;;;;;-11.23;50.60;100154.12;1740420;81;21691;-63
2021/01/19 09:44:39;;;;;;;21.80;9.03;;;;;;;-11.27;50.83;100156.25;1721606;82;21666;-61
2021/01/19 09:47:09;;;;;;;19.87;9.55;;;;;;;-11.32;50.93;100150.82;1681041;83;21735;-65
2021/01/19 09:49:40;;;;;;;23.50;9.03;;;;;;;-11.28;51.13;100149.54;1745232;81;21192;-60
2021/01/19 09:52:13;;;;;;;24.60;9.20;;;;;;;-11.22;51.05;100151.19;1706363;81;21185;-64
2021/01/19 09:54:41;;;;;;;17.62;7.83;;;;;;;-11.16;51.20;100153.66;1751399;81;21180;-62
2021/01/19 09:57:15;;;;;;;24.63;8.45;;;;;;;-11.08;51.13;100154.43;1755291;81;21185;-60
2021/01/19 09:59:46;;;;;;;20.05;8.53;;;;;;;-11.01;51.08;100151.00;1748781;81;21590;-64
2021/01/19 10:02:14;;;;;;;26.33;10.05;;;;;;;-10.93;50.99;100147.15;1745798;82;21641;-63
2021/01/19 10:04:43;;;;;;;23.07;10.00;;;;;;;-10.87;50.79;100150.88;1760806;81;21192;-63
2021/01/19 10:07:11;;;;;;;26.55;11.85;;;;;;;-10.87;50.73;100140.79;1745961;81;21604;-63
2021/01/19 10:09:40;;;;;;;19.48;8.05;;;;;;;-10.79;50.79;100139.48;1746786;81;21617;-62
2021/01/19 10:12:09;;;;;;;19.82;7.72;;;;;;;-10.75;50.64;100130.58;1738750;82;21564;-63
2021/01/19 10:14:40;;;;;;;17.55;7.50;;;;;;;-10.67;50.63;100130.53;1662083;84;21203;-64
2021/01/19 10:17:10;;;;;;;26.55;9.80;;;;;;;-10.62;50.42;100128.37;1676896;85;21137;-63
2021/01/19 10:19:41;;;;;;;19.80;8.33;;;;;;;-10.65;50.35;100130.08;1686999;83;22307;-62
2021/01/19 10:22:10;;;;;;;19.87;8.83;;;;;;;-10.63;50.31;100132.98;1739986;82;21557;-61
2021/01/19 10:24:48;;;;;;;22.13;9.15;;;;;;;-10.58;50.18;100125.37;1733951;82;21171;-61
2021/01/19 10:27:20;;;;;;;21.00;10.28;;;;;;;-10.52;50.30;100124.05;1731104;82;21154;-59
2021/01/19 10:29:50;;;;;;;21.62;9.85;;;;;;;-10.43;50.17;100119.34;1718289;83;21148;-61
2021/01/19 10:32:18;;;;;;;22.62;8.98;;;;;;;-10.44;50.07;100119.75;1695098;83;21635;-61
2021/01/19 10:34:49;;;;;;;23.20;9.20;;;;;;;-10.39;49.95;100119.27;1704661;83;21647;-61
2021/01/19 10:37:19;;;;;;;34.30;12.47;;;;;;;-10.41;49.90;100118.47;1675187;83;21156;-60
2021/01/19 10:39:57;;;;;;;34.50;12.98;;;;;;;-10.40;49.79;100115.52;1710107;83;21186;-62
2021/01/19 10:42:27;;;;;;;;;;;;;;;-10.44;49.79;100115.13;1723161;83;21221;-59
2021/01/19 10:45:05;;;;;;;30.05;12.60;;;;;;;-10.47;49.90;100112.22;1742057;81;20441;-62
2021/01/19 10:47:43;;;;;;;29.65;12.23;;;;;;;-10.41;50.08;100113.84;1733667;83;21621;-62
2021/01/19 10:50:20;;;;;;;26.10;10.50;;;;;;;-10.33;50.19;100112.89;1708624;83;21286;-61
2021/01/19 10:53:03;;;;;;;26.45;11.57;;;;;;;-10.24;50.19;100106.91;1715802;83;21251;-61
2021/01/19 10:55:33;;;;;;;30.62;13.05;;;;;;;-10.07;50.15;100105.39;1725791;82;21157;-62
2021/01/19 10:58:03;;;;;;;33.10;14.23;;;;;;;-9.95;50.06;100102.71;1713729;81;21150;-62
2021/01/19 11:00:33;;;;;;;36.15;15.55;;;;;;;-9.89;49.98;100095.05;1724551;83;21211;-62
2021/01/19 11:03:02;;;;;;;37.35;18.12;;;;;;;-9.91;49.90;100100.56;1725600;83;21213;-61
2021/01/19 11:05:31;;;;;;;25.27;9.95;;;;;;;-10.17;49.87;100098.80;1732000;81;21174;-62
2021/01/19 11:08:03;;;;;;;28.00;11.90;;;;;;;-10.28;50.30;100093.90;1731415;83;22213;-63
2021/01/19 11:10:32;;;;;;;28.17;11.88;;;;;;;-10.17;50.52;100087.00;1656749;84;21298;-63
2021/01/19 11:13:04;;;;;;;28.65;12.82;;;;;;;-9.96;50.56;100088.41;1735582;83;21819;-63
2021/01/19 11:15:33;;;;;;;32.00;11.50;;;;;;;-9.81;50.29;100083.59;1735262;83;21194;-62
2021/01/19 11:18:02;;;;;;;40.92;16.00;;;;;;;-9.90;50.08;100082.44;1735981;83;21246;-62
2021/01/19 11:20:32;;;;;;;29.35;11.00;;;;;;;-10.14;50.21;100082.33;1706723;84;21563;-62
2021/01/19 11:23:02;;;;;;;44.45;17.82;;;;;;;-10.10;50.40;100075.13;1736296;83;21645;-62
2021/01/19 11:25:30;;;;;;;36.23;12.63;;;;;;;-10.23;50.53;100080.80;1735622;83;21327;-62
2021/01/19 11:27:59;;;;;;;25.62;11.05;;;;;;;-10.14;50.73;100076.84;1713774;83;21832;-62
2021/01/19 11:30:29;;;;;;;25.97;9.73;;;;;;;-10.06;50.59;100076.34;1729814;83;21584;-63
2021/01/19 11:32:58;;;;;;;23.80;10.00;;;;;;;-9.96;50.58;100080.83;1729501;83;21347;-63
2021/01/19 11:35:28;;;;;;;24.18;10.53;;;;;;;-9.79;50.49;100076.81;1729778;83;21162;-62
2021/01/19 11:37:59;;;;;;;25.77;11.53;;;;;;;-9.63;50.31;100074.88;1729807;83;21282;-62
2021/01/19 11:40:28;;;;;;;25.68;10.30;;;;;;;-9.79;49.97;100083.13;1728939;83;21145;-63
2021/01/19 11:42:57;;;;;;;25.20;12.80;;;;;;;-9.79;50.03;100083.13;1728842;83;21216;-62
2021/01/19 11:45:27;;;;;;;30.27;12.68;;;;;;;-9.74;49.88;100076.75;1728676;82;21958;-61
2021/01/19 11:47:56;;;;;;;23.75;10.93;;;;;;;-9.71;49.84;100078.80;1729571;83;21547;-61
